createdAt,value
2018-06-18T00:01:32.552Z,4.00
2018-06-18T00:03:58.990Z,3.00
2018-06-18T00:06:25.425Z,3.80
2018-06-18T00:08:52.196Z,4.00
2018-06-18T00:11:18.641Z,3.00
2018-06-18T00:13:45.096Z,4.00
2018-06-18T00:16:11.553Z,4.40
2018-06-18T00:18:38.277Z,3.00
2018-06-18T00:21:04.719Z,4.80
2018-06-18T00:23:31.164Z,4.00
2018-06-18T00:25:57.900Z,4.80
2018-06-18T00:28:26.027Z,3.40
2018-06-18T00:30:52.612Z,4.00
2018-06-18T00:33:19.048Z,3.40
2018-06-18T00:35:45.781Z,4.40
2018-06-18T00:38:12.240Z,4.00
2018-06-18T00:40:38.692Z,4.00
2018-06-18T00:43:05.144Z,0.00
2018-06-18T00:45:31.599Z,4.00
2018-06-18T00:47:58.054Z,4.00
2018-06-18T00:50:24.484Z,3.40
2018-06-18T00:52:52.179Z,6.00
2018-06-18T00:55:18.650Z,4.00
2018-06-18T00:57:45.097Z,4.00
2018-06-18T01:00:11.540Z,3.00
2018-06-18T01:02:38.285Z,4.40
2018-06-18T01:05:04.745Z,3.60
2018-06-18T01:07:31.181Z,4.00
2018-06-18T01:09:57.612Z,5.20
2018-06-18T01:12:24.333Z,4.40
2018-06-18T01:14:50.799Z,3.60
2018-06-18T01:17:17.241Z,4.00
2018-06-18T01:19:44.333Z,3.60
2018-06-18T01:22:11.074Z,4.00
2018-06-18T01:24:38.144Z,3.80
2018-06-18T01:27:04.604Z,3.60
2018-06-18T01:29:31.055Z,4.00
2018-06-18T01:31:57.797Z,3.80
2018-06-18T01:34:24.256Z,4.00
2018-06-18T01:36:50.698Z,4.00
2018-06-18T01:39:17.853Z,3.00
2018-06-18T01:41:44.585Z,3.80
2018-06-18T01:44:11.040Z,3.80
2018-06-18T01:46:37.480Z,3.40
2018-06-18T01:49:03.917Z,3.60
2018-06-18T01:51:30.662Z,3.60
2018-06-18T01:53:57.107Z,3.80
2018-06-18T01:56:23.564Z,4.00
2018-06-18T01:58:49.997Z,3.00
2018-06-18T02:01:16.805Z,4.00
2018-06-18T02:03:43.237Z,3.40
2018-06-18T02:06:09.673Z,4.00
2018-06-18T02:08:36.166Z,3.20
2018-06-18T02:11:02.953Z,4.00
2018-06-18T02:13:29.398Z,3.80
2018-06-18T02:15:55.875Z,3.80
2018-06-18T02:18:22.330Z,3.80
2018-06-18T02:20:49.076Z,4.80
2018-06-18T02:23:15.544Z,4.00
2018-06-18T02:25:42.000Z,3.00
2018-06-18T02:28:08.568Z,3.80
2018-06-18T02:30:35.331Z,3.00
2018-06-18T02:33:01.778Z,4.00
2018-06-18T02:35:28.217Z,2.60
2018-06-18T02:37:54.672Z,1.00
2018-06-18T02:40:21.473Z,3.00
2018-06-18T02:42:47.933Z,3.20
2018-06-18T02:45:14.377Z,3.00
2018-06-18T02:47:40.857Z,2.20
2018-06-18T02:50:07.602Z,2.60
2018-06-18T02:52:34.049Z,3.40
2018-06-18T02:55:00.522Z,3.00
2018-06-18T02:57:26.957Z,3.60
2018-06-18T02:59:53.845Z,3.00
2018-06-18T03:02:20.290Z,3.60
2018-06-18T03:04:46.732Z,1.00
2018-06-18T03:07:13.561Z,3.00
2018-06-18T03:09:40.006Z,1.00
2018-06-18T03:12:06.452Z,3.20
2018-06-18T03:14:32.886Z,3.20
2018-06-18T03:16:59.331Z,2.60
2018-06-18T03:19:25.767Z,3.40
2018-06-18T03:21:52.285Z,3.00
2018-06-18T03:24:20.149Z,3.00
2018-06-18T03:26:46.608Z,4.40
2018-06-18T03:29:13.877Z,3.00
2018-06-18T03:31:40.609Z,0.80
2018-06-18T03:34:07.053Z,4.00
2018-06-18T03:36:33.493Z,3.60
2018-06-18T03:38:59.936Z,4.00
2018-06-18T03:41:26.770Z,3.00
2018-06-18T03:43:53.212Z,4.00
2018-06-18T03:46:19.689Z,3.80
2018-06-18T03:48:46.333Z,4.00
2018-06-18T03:51:13.332Z,3.60
2018-06-18T03:53:40.004Z,4.00
2018-06-18T03:56:06.445Z,4.00
2018-06-18T03:58:32.905Z,5.20
2018-06-18T04:00:59.710Z,4.00
2018-06-18T04:03:26.192Z,4.00
2018-06-18T04:05:52.642Z,5.60
2018-06-18T04:08:19.089Z,4.00
2018-06-18T04:10:48.435Z,5.60
2018-06-18T04:13:14.882Z,4.00
2018-06-18T04:15:41.349Z,4.00
2018-06-18T04:18:08.484Z,6.00
2018-06-18T04:20:38.222Z,4.80
2018-06-18T04:23:04.712Z,4.40
2018-06-18T04:25:31.150Z,5.20
2018-06-18T04:27:57.601Z,6.00
2018-06-18T04:30:24.429Z,6.00
2018-06-18T04:32:50.865Z,5.20
2018-06-18T04:35:17.349Z,6.60
2018-06-18T04:37:44.160Z,5.20
2018-06-18T04:40:10.576Z,6.00
2018-06-18T04:42:37.030Z,6.00
2018-06-18T04:45:05.004Z,7.00
2018-06-18T04:47:31.452Z,6.00
2018-06-18T04:49:57.886Z,6.80
2018-06-18T04:52:24.617Z,7.00
2018-06-18T04:54:51.061Z,6.00
2018-06-18T04:57:17.506Z,6.20
2018-06-18T04:59:44.237Z,6.20
2018-06-18T05:02:10.701Z,5.60
2018-06-18T05:04:37.202Z,6.00
2018-06-18T05:07:03.993Z,7.00
2018-06-18T05:09:30.761Z,6.00
2018-06-18T05:11:57.203Z,6.00
2018-06-18T05:14:24.012Z,5.60
2018-06-18T05:16:50.472Z,6.00
2018-06-18T05:19:17.284Z,6.60
2018-06-18T05:21:44.298Z,5.60
2018-06-18T05:24:10.760Z,7.40
2018-06-18T05:26:37.196Z,3.80
2018-06-18T05:29:04.050Z,6.20
2018-06-18T05:31:30.494Z,3.00
2018-06-18T05:33:57.981Z,6.00
2018-06-18T05:36:24.764Z,6.60
2018-06-18T05:38:51.976Z,6.80
2018-06-18T05:41:18.413Z,5.20
2018-06-18T05:43:45.268Z,7.00
2018-06-18T05:46:11.724Z,6.00
2018-06-18T05:48:39.323Z,6.00
2018-06-18T05:51:06.226Z,6.20
2018-06-18T05:53:33.676Z,4.80
2018-06-18T05:56:01.845Z,6.00
2018-06-18T05:58:32.823Z,6.00
2018-06-18T06:01:00.915Z,4.00
2018-06-18T06:03:27.381Z,6.20
2018-06-18T06:05:54.937Z,6.00
2018-06-18T06:08:21.517Z,6.00
2018-06-18T06:10:47.953Z,6.00
2018-06-18T06:13:14.900Z,5.20
2018-06-18T06:15:43.486Z,3.00
2018-06-18T06:18:09.941Z,4.40
2018-06-18T06:20:37.313Z,3.80
2018-06-18T06:23:03.760Z,3.60
2018-06-18T06:25:30.210Z,5.20
2018-06-18T06:27:57.963Z,5.60
2018-06-18T06:30:24.437Z,6.00
2018-06-18T06:32:51.927Z,4.80
2018-06-18T06:35:18.803Z,5.60
2018-06-18T06:37:45.270Z,4.80
2018-06-18T06:40:11.721Z,3.00
2018-06-18T06:42:38.500Z,6.00
2018-06-18T06:45:04.969Z,3.80
2018-06-18T06:47:31.416Z,6.60
2018-06-18T06:49:58.314Z,6.00
2018-06-18T06:52:26.195Z,3.00
2018-06-18T06:54:52.657Z,4.80
2018-06-18T06:57:20.263Z,6.60
2018-06-18T06:59:46.700Z,3.20
2018-06-18T07:02:13.337Z,3.00
2018-06-18T07:04:40.200Z,4.00
2018-06-18T07:07:07.794Z,5.20
2018-06-18T07:09:34.510Z,4.00
2018-06-18T07:12:01.305Z,6.40
2018-06-18T07:14:29.133Z,4.80
2018-06-18T07:16:55.705Z,4.00
2018-06-18T07:19:22.798Z,5.60
2018-06-18T07:21:49.241Z,6.00
2018-06-18T07:24:18.876Z,4.00
2018-06-18T07:26:45.732Z,2.20
2018-06-18T07:29:12.176Z,2.40
2018-06-18T07:31:38.648Z,4.00
2018-06-18T07:34:07.123Z,4.00
2018-06-18T07:36:34.489Z,4.00
2018-06-18T07:39:01.246Z,6.80
2018-06-18T07:41:28.177Z,4.00
2018-06-18T07:43:54.696Z,4.80
2018-06-18T07:46:22.478Z,4.20
2018-06-18T07:48:49.309Z,5.00
2018-06-18T07:51:16.558Z,4.80
2018-06-18T07:53:43.092Z,5.40
2018-06-18T07:56:11.134Z,4.00
2018-06-18T07:58:38.794Z,6.40
2018-06-18T08:01:05.843Z,5.20
2018-06-18T08:03:32.867Z,5.60
2018-06-18T08:05:59.290Z,5.60
2018-06-18T08:08:25.758Z,6.00
2018-06-18T08:10:52.729Z,6.40
2018-06-18T08:13:19.783Z,5.40
2018-06-18T08:15:46.246Z,7.60
2018-06-18T08:18:13.430Z,4.40
2018-06-18T08:20:39.989Z,7.00
2018-06-18T08:23:11.485Z,7.80
2018-06-18T08:25:38.377Z,7.40
2018-06-18T08:28:04.814Z,5.80
2018-06-18T08:30:31.260Z,7.00
2018-06-18T08:32:58.185Z,7.00
2018-06-18T08:35:25.329Z,6.20
2018-06-18T08:37:51.881Z,7.40
2018-06-18T08:40:18.846Z,5.40
2018-06-18T08:42:45.764Z,7.60
2018-06-18T08:45:14.709Z,8.40
2018-06-18T08:47:41.564Z,8.20
2018-06-18T08:50:09.569Z,7.80
2018-06-18T08:52:40.436Z,7.20
2018-06-18T08:55:07.209Z,10.00
2018-06-18T08:57:33.670Z,8.00
2018-06-18T09:00:00.117Z,7.00
2018-06-18T09:02:26.863Z,7.80
2018-06-18T09:04:54.531Z,8.40
2018-06-18T09:07:20.973Z,7.60
2018-06-18T09:09:48.477Z,4.40
2018-06-18T09:12:15.744Z,6.20
2018-06-18T09:14:42.189Z,6.60
2018-06-18T09:17:08.655Z,4.60
2018-06-18T09:19:35.103Z,6.60
2018-06-18T09:22:01.839Z,6.60
2018-06-18T09:24:28.332Z,5.40
2018-06-18T09:26:54.777Z,5.20
2018-06-18T09:29:21.516Z,4.00
2018-06-18T09:31:48.833Z,5.00
2018-06-18T09:34:15.295Z,5.00
2018-06-18T09:36:42.043Z,5.00
2018-06-18T09:39:08.479Z,4.00
2018-06-18T09:41:34.944Z,5.00
2018-06-18T09:44:01.697Z,7.20
2018-06-18T09:46:28.670Z,7.80
2018-06-18T09:48:56.046Z,7.00
2018-06-18T09:51:22.789Z,7.40
2018-06-18T09:53:49.236Z,7.00
2018-06-18T09:56:15.737Z,7.00
2018-06-18T09:58:42.489Z,10.00
2018-06-18T10:01:08.942Z,8.00
2018-06-18T10:03:35.389Z,7.00
2018-06-18T10:06:02.284Z,5.00
2018-06-18T10:08:28.988Z,5.00
2018-06-18T10:10:55.435Z,5.00
2018-06-18T10:13:22.715Z,5.00
2018-06-18T10:15:49.356Z,4.80
2018-06-18T10:18:16.074Z,2.40
2018-06-18T10:20:43.040Z,2.00
2018-06-18T10:23:09.477Z,2.00
2018-06-18T10:25:35.968Z,5.00
2018-06-18T10:28:03.954Z,3.20
2018-06-18T10:30:30.414Z,1.00
2018-06-18T10:32:56.845Z,2.00
2018-06-18T10:35:24.542Z,2.00
2018-06-18T10:37:50.984Z,2.80
2018-06-18T10:40:17.440Z,2.80
2018-06-18T10:42:44.205Z,2.40
2018-06-18T10:45:10.647Z,2.00
2018-06-18T10:47:37.380Z,4.20
2018-06-18T10:50:04.117Z,4.00
2018-06-18T10:52:30.660Z,3.60
2018-06-18T10:54:58.969Z,4.00
2018-06-18T10:57:26.386Z,2.40
2018-06-18T10:59:53.426Z,5.00
2018-06-18T11:02:24.472Z,4.40
2018-06-18T11:04:56.425Z,5.00
2018-06-18T11:07:23.529Z,4.20
2018-06-18T11:09:50.730Z,5.40
2018-06-18T11:12:18.310Z,4.00
2018-06-18T11:14:45.931Z,5.00
2018-06-18T11:17:12.688Z,4.80
2018-06-18T11:19:39.230Z,4.60
2018-06-18T11:22:06.454Z,5.00
2018-06-18T11:24:32.936Z,4.80
2018-06-18T11:26:59.703Z,5.00
2018-06-18T11:29:26.325Z,5.00
2018-06-18T11:31:53.432Z,5.00
2018-06-18T11:34:21.591Z,5.00
2018-06-18T11:36:48.049Z,6.40
2018-06-18T11:39:14.602Z,5.40
2018-06-18T11:41:41.402Z,4.80
2018-06-18T11:44:08.563Z,6.00
2018-06-18T11:46:35.011Z,5.60
2018-06-18T11:49:01.765Z,6.00
2018-06-18T11:51:28.236Z,5.80
2018-06-18T11:53:54.710Z,2.00
2018-06-18T11:56:21.463Z,6.00
2018-06-18T11:58:51.570Z,7.20
2018-06-18T12:01:22.690Z,5.80
2018-06-18T12:03:53.565Z,3.60
2018-06-18T12:06:21.057Z,5.00
2018-06-18T12:08:48.299Z,5.00
2018-06-18T12:11:15.287Z,5.40
2018-06-18T12:13:41.770Z,5.40
2018-06-18T12:16:08.222Z,5.00
2018-06-18T12:18:35.013Z,5.00
2018-06-18T12:21:01.461Z,5.00
2018-06-18T12:23:27.932Z,5.80
2018-06-18T12:25:54.717Z,6.80
2018-06-18T12:28:22.337Z,4.80
2018-06-18T12:30:50.235Z,6.00
2018-06-18T12:33:18.904Z,6.80
2018-06-18T12:35:45.348Z,6.00
2018-06-18T12:38:12.636Z,8.00
2018-06-18T12:40:39.375Z,6.40
2018-06-18T12:43:06.947Z,5.60
2018-06-18T12:45:33.409Z,6.00
2018-06-18T12:47:59.886Z,5.40
2018-06-18T12:50:26.332Z,6.00
2018-06-18T12:52:53.186Z,7.20
2018-06-18T12:55:19.627Z,5.60
2018-06-18T12:57:46.599Z,8.00
2018-06-18T13:00:14.499Z,6.00
2018-06-18T13:02:40.960Z,6.60
2018-06-18T13:05:07.429Z,8.00
2018-06-18T13:07:35.301Z,7.00
2018-06-18T13:10:02.673Z,7.60
2018-06-18T13:12:29.358Z,5.60
2018-06-18T13:14:56.836Z,7.60
2018-06-18T13:17:23.309Z,5.20
2018-06-18T13:19:50.413Z,6.00
2018-06-18T13:22:19.456Z,7.20
2018-06-18T13:24:45.934Z,7.20
2018-06-18T13:27:12.380Z,7.20
2018-06-18T13:29:40.004Z,8.00
2018-06-18T13:32:06.454Z,5.40
2018-06-18T13:34:32.921Z,6.40
2018-06-18T13:36:59.782Z,5.00
2018-06-18T13:39:26.232Z,5.00
2018-06-18T13:41:52.675Z,2.00
2018-06-18T13:44:21.566Z,4.60
2018-06-18T13:46:48.828Z,4.80
2018-06-18T13:49:16.539Z,4.40
2018-06-18T13:51:43.328Z,5.00
2018-06-18T13:54:09.789Z,7.00
2018-06-18T13:56:36.260Z,5.00
2018-06-18T13:59:03.896Z,4.40
2018-06-18T14:01:30.343Z,5.00
2018-06-18T14:03:56.800Z,5.00
2018-06-18T14:06:24.176Z,5.00
2018-06-18T14:08:50.622Z,5.00
2018-06-18T14:11:17.072Z,5.00
2018-06-18T14:13:43.877Z,5.00
2018-06-18T14:16:10.328Z,5.00
2018-06-18T14:18:36.800Z,2.00
2018-06-18T14:21:03.554Z,2.00
2018-06-18T14:23:31.931Z,4.00
2018-06-18T14:25:58.395Z,4.60
2018-06-18T14:28:25.159Z,4.80
2018-06-18T14:30:52.550Z,4.40
2018-06-18T14:33:19.518Z,4.60
2018-06-18T14:35:47.429Z,5.00
2018-06-18T14:38:13.892Z,7.00
2018-06-18T14:40:40.348Z,6.20
2018-06-18T14:43:07.252Z,5.40
2018-06-18T14:45:33.714Z,5.40
2018-06-18T14:48:01.030Z,4.20
2018-06-18T14:50:27.793Z,6.60
2018-06-18T14:52:54.251Z,6.20
2018-06-18T14:55:20.708Z,5.80
2018-06-18T14:57:47.485Z,5.40
2018-06-18T15:00:13.917Z,4.00
2018-06-18T15:02:40.421Z,2.00
2018-06-18T15:05:07.157Z,4.80
2018-06-18T15:07:33.600Z,5.00
2018-06-18T15:10:00.104Z,4.00
2018-06-18T15:12:28.023Z,5.00
2018-06-18T15:14:54.470Z,4.60
2018-06-18T15:17:20.922Z,4.00
2018-06-18T15:19:47.673Z,4.00
2018-06-18T15:22:15.129Z,6.20
2018-06-18T15:24:42.500Z,4.80
2018-06-18T15:27:09.249Z,2.80
2018-06-18T15:29:35.755Z,2.00
2018-06-18T15:32:02.503Z,3.60
2018-06-18T15:34:29.256Z,4.00
2018-06-18T15:36:55.693Z,3.20
2018-06-18T15:39:22.389Z,2.40
2018-06-18T15:41:49.141Z,5.80
2018-06-18T15:44:15.658Z,5.00
2018-06-18T15:46:42.373Z,4.00
2018-06-18T15:49:08.821Z,4.00
2018-06-18T15:51:38.254Z,4.20
2018-06-18T15:54:06.436Z,4.80
2018-06-18T15:56:32.931Z,5.00
2018-06-18T15:58:59.436Z,5.40
2018-06-18T16:01:26.208Z,4.00
2018-06-18T16:03:53.636Z,4.00
2018-06-18T16:06:23.304Z,5.00
2018-06-18T16:08:50.041Z,5.00
2018-06-18T16:11:16.477Z,4.20
2018-06-18T16:13:42.921Z,2.00
2018-06-18T16:16:09.668Z,4.00
2018-06-18T16:18:36.354Z,4.00
2018-06-18T16:21:02.816Z,4.60
2018-06-18T16:23:29.572Z,4.00
2018-06-18T16:25:57.656Z,3.20
2018-06-18T16:28:24.375Z,5.00
2018-06-18T16:30:51.647Z,1.00
2018-06-18T16:33:18.092Z,4.00
2018-06-18T16:35:44.528Z,3.20
2018-06-18T16:38:12.633Z,4.00
2018-06-18T16:40:39.121Z,4.20
2018-06-18T16:43:05.582Z,4.20
2018-06-18T16:45:32.740Z,4.00
2018-06-18T16:47:59.184Z,3.60
2018-06-18T16:50:25.657Z,2.20
2018-06-18T16:52:53.380Z,4.00
2018-06-18T16:55:19.850Z,3.80
2018-06-18T16:57:46.297Z,4.00
2018-06-18T17:00:17.534Z,4.00
2018-06-18T17:02:44.026Z,3.60
2018-06-18T17:05:10.577Z,4.40
2018-06-18T17:07:37.695Z,4.00
2018-06-18T17:10:04.324Z,4.00
2018-06-18T17:12:31.553Z,4.00
2018-06-18T17:14:58.429Z,4.00
2018-06-18T17:17:25.672Z,2.00
2018-06-18T17:19:55.257Z,4.80
2018-06-18T17:22:22.494Z,5.00
2018-06-18T17:24:49.017Z,4.80
2018-06-18T17:27:15.548Z,5.00
2018-06-18T17:29:42.340Z,4.60
2018-06-18T17:32:08.817Z,4.00
2018-06-18T17:34:35.803Z,4.00
2018-06-18T17:37:02.803Z,4.20
2018-06-18T17:39:30.969Z,5.00
2018-06-18T17:41:57.516Z,2.00
2018-06-18T17:44:25.478Z,4.00
2018-06-18T17:46:51.928Z,4.20
2018-06-18T17:49:18.544Z,4.20
2018-06-18T17:51:45.295Z,2.80
2018-06-18T17:54:13.903Z,4.60
2018-06-18T17:56:40.344Z,4.00
2018-06-18T17:59:07.292Z,4.00
2018-06-18T18:01:34.941Z,3.60
2018-06-18T18:04:01.429Z,4.40
2018-06-18T18:06:28.222Z,2.00
2018-06-18T18:08:55.467Z,2.00
2018-06-18T18:11:23.052Z,4.00
2018-06-18T18:13:49.862Z,4.00
2018-06-18T18:16:16.676Z,2.00
2018-06-18T18:18:43.401Z,2.80
2018-06-18T18:21:11.336Z,2.00
2018-06-18T18:23:37.773Z,4.00
2018-06-18T18:26:04.228Z,2.00
2018-06-18T18:28:32.624Z,4.00
2018-06-18T18:31:02.436Z,4.00
2018-06-18T18:33:37.568Z,6.00
2018-06-18T18:36:04.407Z,4.00
2018-06-18T18:38:30.980Z,2.40
2018-06-18T18:40:57.767Z,4.40
2018-06-18T18:43:24.501Z,2.00
2018-06-18T18:45:50.938Z,3.60
2018-06-18T18:48:17.389Z,2.40
2018-06-18T18:50:44.724Z,4.00
2018-06-18T18:53:11.732Z,4.00
2018-06-18T18:55:38.164Z,4.00
2018-06-18T18:58:04.900Z,3.60
2018-06-18T19:00:31.355Z,3.20
2018-06-18T19:02:57.809Z,4.00
2018-06-18T19:05:26.020Z,4.60
2018-06-18T19:07:53.439Z,4.00
2018-06-18T19:10:21.045Z,5.00
2018-06-18T19:12:48.930Z,4.00
2018-06-18T19:15:15.386Z,3.60
2018-06-18T19:17:41.849Z,3.20
2018-06-18T19:20:08.429Z,4.00
2018-06-18T19:22:34.892Z,4.60
2018-06-18T19:25:02.448Z,4.60
2018-06-18T19:27:28.910Z,4.00
2018-06-18T19:29:55.620Z,5.40
2018-06-18T19:32:22.341Z,5.00
2018-06-18T19:34:48.778Z,4.80
2018-06-18T19:37:16.146Z,4.80
2018-06-18T19:39:42.888Z,4.00
2018-06-18T19:42:09.357Z,6.20
2018-06-18T19:44:35.814Z,4.80
2018-06-18T19:47:03.264Z,5.40
2018-06-18T19:49:30.371Z,5.40
2018-06-18T19:51:56.838Z,5.40
2018-06-18T19:54:23.577Z,4.00
2018-06-18T19:56:50.844Z,4.80
2018-06-18T19:59:17.298Z,4.00
2018-06-18T20:01:46.178Z,4.00
2018-06-18T20:04:12.629Z,6.00
2018-06-18T20:06:39.208Z,4.80
2018-06-18T20:09:07.783Z,6.80
2018-06-18T20:11:34.246Z,5.60
2018-06-18T20:14:01.367Z,4.60
2018-06-18T20:16:28.095Z,3.80
2018-06-18T20:18:54.546Z,5.80
2018-06-18T20:21:22.189Z,6.20
2018-06-18T20:23:50.232Z,5.00
2018-06-18T20:26:16.664Z,6.40
2018-06-18T20:28:46.322Z,6.00
2018-06-18T20:31:13.240Z,6.00
2018-06-18T20:33:40.499Z,6.00
2018-06-18T20:36:06.963Z,7.00
2018-06-18T20:38:33.851Z,7.00
2018-06-18T20:41:00.288Z,6.00
2018-06-18T20:43:26.747Z,5.60
2018-06-18T20:45:54.181Z,4.40
2018-06-18T20:48:21.618Z,6.80
2018-06-18T20:50:48.612Z,6.00
2018-06-18T20:53:16.904Z,6.00
2018-06-18T20:55:43.370Z,7.00
2018-06-18T20:58:09.809Z,3.80
2018-06-18T21:03:19.409Z,6.60
2018-06-18T21:05:45.983Z,6.40
2018-06-18T21:08:14.110Z,6.80
2018-06-18T21:10:41.515Z,5.20
2018-06-18T21:13:09.081Z,7.00
2018-06-18T21:15:36.775Z,6.00
2018-06-18T21:18:04.212Z,6.20
2018-06-18T21:20:33.949Z,6.60
2018-06-18T21:23:00.581Z,6.00
2018-06-18T21:25:27.039Z,6.60
2018-06-18T21:27:56.704Z,6.00
2018-06-18T21:32:54.900Z,6.40
2018-06-18T21:35:22.977Z,7.40
2018-06-18T21:37:49.701Z,6.00
2018-06-18T21:40:17.576Z,7.20
2018-06-18T21:42:44.021Z,7.00
2018-06-18T21:45:11.059Z,7.00
2018-06-18T21:47:37.568Z,7.40
2018-06-18T21:50:04.062Z,7.00
2018-06-18T21:52:30.526Z,4.00
2018-06-18T21:54:58.639Z,6.00
2018-06-18T21:57:25.405Z,7.00
2018-06-18T21:59:52.046Z,8.60
2018-06-18T22:02:19.572Z,7.00
2018-06-18T22:04:47.628Z,7.00
2018-06-18T22:07:14.085Z,6.60
2018-06-18T22:09:40.523Z,9.00
2018-06-18T22:12:07.274Z,6.80
2018-06-18T22:14:34.516Z,6.80
2018-06-18T22:17:01.318Z,6.60
2018-06-18T22:19:28.178Z,7.40
2018-06-18T22:21:54.870Z,6.00
2018-06-18T22:24:21.320Z,7.80
2018-06-18T22:26:49.601Z,6.60
2018-06-18T22:29:17.518Z,6.80
2018-06-18T22:31:43.956Z,7.00
2018-06-18T22:34:10.459Z,7.40
2018-06-18T22:36:37.227Z,6.40
2018-06-18T22:39:03.688Z,1.40
2018-06-18T22:41:30.145Z,8.60
2018-06-18T22:43:56.584Z,5.60
2018-06-18T22:46:23.330Z,7.00
2018-06-18T22:48:49.790Z,4.40
2018-06-18T22:51:16.237Z,3.00
2018-06-18T22:53:42.966Z,4.00
2018-06-18T22:56:09.720Z,6.20
2018-06-18T22:58:37.165Z,6.00
2018-06-18T23:01:03.798Z,6.00
2018-06-18T23:03:33.209Z,7.00
2018-06-18T23:06:01.171Z,6.40
2018-06-18T23:08:27.609Z,7.00
2018-06-18T23:10:55.669Z,7.00
2018-06-18T23:13:23.209Z,6.20
2018-06-18T23:15:49.765Z,6.00
2018-06-18T23:18:17.638Z,7.00
2018-06-18T23:20:48.992Z,6.00
2018-06-18T23:23:16.350Z,5.20
2018-06-18T23:25:44.340Z,6.60
2018-06-18T23:28:12.371Z,4.40
2018-06-18T23:30:40.977Z,7.00
2018-06-18T23:33:08.778Z,6.20
2018-06-18T23:35:36.491Z,7.20
2018-06-18T23:38:03.766Z,4.80
2018-06-18T23:40:30.896Z,6.20
2018-06-18T23:42:58.603Z,6.00
2018-06-18T23:45:26.370Z,6.40
2018-06-18T23:47:55.781Z,6.00
2018-06-18T23:50:22.583Z,6.00
2018-06-18T23:52:50.043Z,7.80
2018-06-18T23:55:18.869Z,6.40
2018-06-18T23:57:46.558Z,6.80
